Time;durP1;ratioP1;P1;durP2;ratioP2;P2;SDS_P1;SDS_P2;PMS_P1;PMS_P2;Temp;Humidity;BMP_temperature;BMP_pressure;BME280_temperature;BME280_humidity;BME280_pressure;Samples;Min_cycle;Max_cycle;Signal;HPM_P1;HPM_P2
2022/07/01 00:01:48;;;;;;;;;;;25.80;91.70;;;;;;5012189;28;19971;-52
2022/07/01 00:04:32;;;;;;;;;;;25.70;91.80;;;;;;5015725;28;19927;-56
2022/07/01 00:07:16;;;;;;;;;;;25.70;91.90;;;;;;5031588;28;19915;-53
2022/07/01 00:10:00;;;;;;;;;;;25.70;91.90;;;;;;5032762;28;19955;-56
2022/07/01 00:12:44;;;;;;;;;;;25.70;92.00;;;;;;5032364;28;20028;-58
2022/07/01 00:15:29;;;;;;;;;;;25.70;92.00;;;;;;5012831;28;20433;-56
2022/07/01 00:18:13;;;;;;;;;;;25.70;92.10;;;;;;5014177;28;20330;-55
2022/07/01 00:20:57;;;;;;;;;;;25.60;92.20;;;;;;5033675;28;19912;-55
2022/07/01 00:23:41;;;;;;;;;;;25.60;92.30;;;;;;5032064;28;19958;-55
2022/07/01 00:26:25;;;;;;;;;;;25.60;92.50;;;;;;5037635;28;19912;-55
2022/07/01 00:29:10;;;;;;;;;;;25.50;92.50;;;;;;5036840;28;20022;-54
2022/07/01 00:31:54;;;;;;;;;;;25.50;92.70;;;;;;5037140;28;20235;-51
2022/07/01 00:34:38;;;;;;;;;;;25.50;92.80;;;;;;5036648;28;19966;-54
2022/07/01 00:37:22;;;;;;;;;;;25.50;92.80;;;;;;5035750;28;19920;-55
2022/07/01 00:40:08;;;;;;;;;;;25.50;92.80;;;;;;5036002;28;19956;-54
2022/07/01 00:42:52;;;;;;;;;;;25.40;93.00;;;;;;5035706;28;20453;-52
2022/07/01 00:45:42;;;;;;;;;;;25.30;93.10;;;;;;5056440;28;19916;-53
2022/07/01 00:48:26;;;;;;;;;;;25.30;93.30;;;;;;5038404;28;20002;-55
2022/07/01 00:51:10;;;;;;;;;;;25.30;93.30;;;;;;5036180;28;20375;-54
2022/07/01 00:53:54;;;;;;;;;;;25.30;93.30;;;;;;5035408;28;19952;-54
2022/07/01 00:56:38;;;;;;;;;;;25.20;93.30;;;;;;5015240;28;19936;-54
2022/07/01 00:59:23;;;;;;;;;;;25.20;93.40;;;;;;5018508;28;19996;-55
2022/07/01 01:02:07;;;;;;;;;;;25.30;93.50;;;;;;5037007;28;19963;-53
2022/07/01 01:04:52;;;;;;;;;;;25.20;93.50;;;;;;5035867;28;20006;-54
2022/07/01 01:07:38;;;;;;;;;;;25.20;93.60;;;;;;5034609;28;20022;-51
2022/07/01 01:10:24;;;;;;;;;;;25.20;93.70;;;;;;5033875;28;19998;-57
2022/07/01 01:13:09;;;;;;;;;;;25.10;93.70;;;;;;5034156;28;19951;-57
2022/07/01 01:15:53;;;;;;;;;;;25.10;93.80;;;;;;5034392;28;20288;-55
2022/07/01 01:18:38;;;;;;;;;;;25.10;93.90;;;;;;5035534;28;19936;-56
2022/07/01 01:21:22;;;;;;;;;;;25.00;94.00;;;;;;5035922;28;19954;-54
2022/07/01 01:24:07;;;;;;;;;;;25.00;94.20;;;;;;5035274;28;19939;-53
2022/07/01 01:26:51;;;;;;;;;;;25.00;94.20;;;;;;5035920;28;20039;-52
2022/07/01 01:29:36;;;;;;;;;;;25.00;94.20;;;;;;5020867;28;19963;-55
2022/07/01 01:32:20;;;;;;;;;;;24.90;94.30;;;;;;5034854;28;19924;-55
2022/07/01 01:35:04;;;;;;;;;;;24.80;94.50;;;;;;5035356;28;19915;-56
2022/07/01 01:37:48;;;;;;;;;;;24.80;94.70;;;;;;5001200;28;19929;-51
2022/07/01 01:40:33;;;;;;;;;;;24.70;94.80;;;;;;5027390;28;19920;-52
2022/07/01 01:43:17;;;;;;;;;;;24.70;95.10;;;;;;5035365;28;19912;-52
2022/07/01 01:46:02;;;;;;;;;;;24.60;95.40;;;;;;5034771;28;20435;-56
2022/07/01 01:48:46;;;;;;;;;;;24.60;95.50;;;;;;5034570;28;19919;-56
2022/07/01 01:51:31;;;;;;;;;;;24.60;95.60;;;;;;5035827;28;19983;-56
2022/07/01 01:54:14;;;;;;;;;;;24.60;95.80;;;;;;5035341;28;19951;-55
2022/07/01 01:56:59;;;;;;;;;;;24.60;95.70;;;;;;5034962;28;19916;-49
2022/07/01 01:59:43;;;;;;;;;;;24.60;95.70;;;;;;5038152;28;20005;-49
2022/07/01 02:02:27;;;;;;;;;;;24.60;95.80;;;;;;5037250;28;19929;-54
2022/07/01 02:05:12;;;;;;;;;;;24.70;95.90;;;;;;5036922;28;20319;-51
2022/07/01 02:07:56;;;;;;;;;;;24.70;95.90;;;;;;5037984;28;19920;-54
2022/07/01 02:10:40;;;;;;;;;;;24.70;96.00;;;;;;5034321;28;19967;-54
2022/07/01 02:13:24;;;;;;;;;;;24.70;96.10;;;;;;5034090;28;20024;-54
2022/07/01 02:16:09;;;;;;;;;;;24.50;96.30;;;;;;5013786;28;19968;-56
2022/07/01 02:18:53;;;;;;;;;;;24.50;96.50;;;;;;5016280;28;20010;-52
2022/07/01 02:21:37;;;;;;;;;;;24.50;96.60;;;;;;5034363;28;19924;-56
2022/07/01 02:24:21;;;;;;;;;;;24.30;97.10;;;;;;5033746;28;19932;-54
2022/07/01 02:27:06;;;;;;;;;;;24.30;97.30;;;;;;5033747;28;20008;-54
2022/07/01 02:29:50;;;;;;;;;;;24.30;97.30;;;;;;5034424;28;20004;-54
2022/07/01 02:32:34;;;;;;;;;;;24.40;97.30;;;;;;5034110;28;19919;-56
2022/07/01 02:35:18;;;;;;;;;;;24.40;97.00;;;;;;5034459;28;19971;-55
2022/07/01 02:38:03;;;;;;;;;;;24.40;97.20;;;;;;5034035;28;20398;-53
2022/07/01 02:40:47;;;;;;;;;;;24.30;97.20;;;;;;5033747;28;19952;-55
2022/07/01 02:43:31;;;;;;;;;;;24.10;97.90;;;;;;5025460;28;20080;-55
2022/07/01 02:46:16;;;;;;;;;;;23.80;98.70;;;;;;5013273;28;19952;-56
2022/07/01 02:49:00;;;;;;;;;;;23.50;99.40;;;;;;5030681;28;19959;-56
2022/07/01 02:51:45;;;;;;;;;;;23.50;99.90;;;;;;5034064;28;19916;-54
2022/07/01 02:54:29;;;;;;;;;;;23.20;99.90;;;;;;5033825;28;20012;-50
2022/07/01 02:57:13;;;;;;;;;;;23.00;99.90;;;;;;5032880;28;20000;-53
2022/07/01 02:59:58;;;;;;;;;;;22.90;99.90;;;;;;5033834;28;19920;-55
2022/07/01 03:02:42;;;;;;;;;;;22.60;99.90;;;;;;5033482;28;19943;-52
2022/07/01 03:05:26;;;;;;;;;;;22.30;99.90;;;;;;5033662;28;19920;-53
2022/07/01 03:08:11;;;;;;;;;;;22.20;99.90;;;;;;5033540;28;20019;-56
2022/07/01 03:10:55;;;;;;;;;;;22.30;99.90;;;;;;5033540;28;19916;-57
2022/07/01 03:13:39;;;;;;;;;;;22.30;99.90;;;;;;5017933;28;20345;-55
2022/07/01 03:16:23;;;;;;;;;;;22.10;99.90;;;;;;5032495;28;19925;-57
2022/07/01 03:19:09;;;;;;;;;;;22.00;99.90;;;;;;5033616;28;19920;-54
2022/07/01 03:21:53;;;;;;;;;;;21.90;99.90;;;;;;5034150;28;19920;-55
2022/07/01 03:24:37;;;;;;;;;;;21.80;99.90;;;;;;5049388;28;19920;-57
2022/07/01 03:27:21;;;;;;;;;;;21.90;99.90;;;;;;5051805;28;19912;-55
2022/07/01 03:30:06;;;;;;;;;;;21.70;99.90;;;;;;5017798;28;19915;-55
2022/07/01 03:32:50;;;;;;;;;;;21.80;99.90;;;;;;5032968;28;19928;-52
2022/07/01 03:35:45;;;;;;;;;;;22.00;99.90;;;;;;5032622;28;19976;-52
2022/07/01 03:38:29;;;;;;;;;;;21.90;99.90;;;;;;5017096;28;20376;-55
2022/07/01 03:41:13;;;;;;;;;;;21.50;99.90;;;;;;5017540;28;19916;-54
2022/07/01 03:43:57;;;;;;;;;;;21.30;99.90;;;;;;5040937;28;19916;-52
2022/07/01 03:46:41;;;;;;;;;;;21.10;99.90;;;;;;5012904;28;20280;-53
2022/07/01 03:49:25;;;;;;;;;;;20.70;99.90;;;;;;5013272;28;19951;-56
2022/07/01 03:52:10;;;;;;;;;;;20.60;99.90;;;;;;5029196;28;19935;-54
2022/07/01 03:54:54;;;;;;;;;;;20.60;99.90;;;;;;5033241;28;20018;-54
2022/07/01 03:57:38;;;;;;;;;;;20.60;99.90;;;;;;5034561;28;19920;-54
2022/07/01 04:00:23;;;;;;;;;;;20.60;99.90;;;;;;5035997;28;19916;-56
2022/07/01 04:03:07;;;;;;;;;;;20.50;99.90;;;;;;5016706;28;19966;-52
2022/07/01 04:05:51;;;;;;;;;;;20.40;99.90;;;;;;5004668;28;20395;-51
2022/07/01 04:08:36;;;;;;;;;;;20.20;99.90;;;;;;5036903;28;19915;-52
2022/07/01 04:11:20;;;;;;;;;;;20.20;99.90;;;;;;5036282;28;19920;-52
2022/07/01 04:14:05;;;;;;;;;;;20.20;99.90;;;;;;5036581;28;19927;-52
2022/07/01 04:16:49;;;;;;;;;;;20.20;99.90;;;;;;5036395;28;19916;-54
2022/07/01 04:19:34;;;;;;;;;;;20.30;99.90;;;;;;5037342;28;19915;-54
2022/07/01 04:22:33;;;;;;;;;;;20.40;99.90;;;;;;5035936;28;19916;-54
2022/07/01 04:25:17;;;;;;;;;;;20.60;99.90;;;;;;5036506;28;19916;-53
2022/07/01 04:28:03;;;;;;;;;;;20.70;99.90;;;;;;5018299;28;20005;-51
2022/07/01 04:30:47;;;;;;;;;;;20.80;99.90;;;;;;5019586;28;20524;-53
2022/07/01 04:33:31;;;;;;;;;;;20.60;99.90;;;;;;5037160;28;20323;-49
2022/07/01 04:36:16;;;;;;;;;;;20.50;99.90;;;;;;5037587;28;19951;-54
2022/07/01 04:39:01;;;;;;;;;;;20.40;99.90;;;;;;5034094;28;19923;-53
2022/07/01 04:42:01;;;;;;;;;;;20.50;99.90;;;;;;5034336;28;20422;-54
2022/07/01 04:44:45;;;;;;;;;;;20.40;99.90;;;;;;5034031;28;19912;-53
2022/07/01 04:47:32;;;;;;;;;;;20.30;99.90;;;;;;5033609;28;19919;-55
2022/07/01 04:50:16;;;;;;;;;;;20.30;99.90;;;;;;5018963;28;19916;-53
2022/07/01 04:53:00;;;;;;;;;;;20.50;99.90;;;;;;5034278;28;19924;-54
2022/07/01 04:55:44;;;;;;;;;;;20.60;99.90;;;;;;5040075;28;19977;-55
2022/07/01 04:58:29;;;;;;;;;;;20.70;99.90;;;;;;5029435;28;20006;-54
2022/07/01 05:01:13;;;;;;;;;;;20.70;99.90;;;;;;5035395;28;20383;-55
2022/07/01 05:03:58;;;;;;;;;;;20.30;99.90;;;;;;5036207;28;19912;-53
2022/07/01 05:06:42;;;;;;;;;;;20.20;99.90;;;;;;5034750;28;19920;-54
2022/07/01 05:09:26;;;;;;;;;;;20.00;99.90;;;;;;5033866;28;19984;-57
2022/07/01 05:12:10;;;;;;;;;;;19.70;99.90;;;;;;5034181;28;20443;-57
2022/07/01 05:14:55;;;;;;;;;;;19.70;99.90;;;;;;5033765;28;19955;-56
2022/07/01 05:23:45;;;;;;;;;;;19.30;99.90;;;;;;5015372;28;19956;-56
2022/07/01 05:26:29;;;;;;;;;;;19.30;99.90;;;;;;5014647;28;19968;-56
2022/07/01 05:29:14;;;;;;;;;;;19.40;99.90;;;;;;5018811;28;19989;-56
2022/07/01 05:31:58;;;;;;;;;;;19.40;99.90;;;;;;5034749;28;20463;-55
2022/07/01 05:34:44;;;;;;;;;;;19.30;99.90;;;;;;5035607;28;20070;-57
2022/07/01 05:37:28;;;;;;;;;;;19.20;99.90;;;;;;5033912;28;20408;-55
2022/07/01 05:40:13;;;;;;;;;;;18.90;99.90;;;;;;5034921;28;19943;-54
2022/07/01 05:42:57;;;;;;;;;;;19.00;99.90;;;;;;5038902;28;19919;-54
2022/07/01 05:45:42;;;;;;;;;;;19.00;99.90;;;;;;5041375;28;20272;-54
2022/07/01 05:48:26;;;;;;;;;;;19.20;99.90;;;;;;5034194;28;19963;-50
2022/07/01 05:51:10;;;;;;;;;;;19.10;99.90;;;;;;5035073;28;19955;-58
2022/07/01 05:53:56;;;;;;;;;;;19.20;99.90;;;;;;5034094;28;19939;-55
2022/07/01 05:56:40;;;;;;;;;;;19.20;99.90;;;;;;5034212;28;19916;-51
2022/07/01 05:59:24;;;;;;;;;;;19.30;99.90;;;;;;5034376;28;19916;-51
2022/07/01 06:02:08;;;;;;;;;;;19.30;99.90;;;;;;5035271;28;19915;-52
2022/07/01 06:04:53;;;;;;;;;;;19.20;99.90;;;;;;5015005;28;19987;-56
2022/07/01 06:07:38;;;;;;;;;;;19.50;99.90;;;;;;5033728;28;20339;-53
2022/07/01 06:10:23;;;;;;;;;;;19.60;99.90;;;;;;5034232;28;19920;-57
2022/07/01 06:13:07;;;;;;;;;;;19.60;99.90;;;;;;5034024;28;19978;-56
2022/07/01 06:15:51;;;;;;;;;;;19.50;99.90;;;;;;5034603;28;20018;-55
2022/07/01 06:18:35;;;;;;;;;;;19.50;99.90;;;;;;5033942;28;19920;-58
2022/07/01 06:21:20;;;;;;;;;;;19.50;99.90;;;;;;5033925;28;19935;-53
2022/07/01 06:24:04;;;;;;;;;;;19.50;99.90;;;;;;5034716;28;19916;-55
2022/07/01 06:26:48;;;;;;;;;;;19.50;99.90;;;;;;5018619;28;19919;-53
2022/07/01 06:29:34;;;;;;;;;;;19.60;99.90;;;;;;5033876;28;19924;-54
2022/07/01 06:32:18;;;;;;;;;;;19.50;99.90;;;;;;5033726;28;19924;-56
2022/07/01 06:35:02;;;;;;;;;;;19.70;99.90;;;;;;5033747;28;19920;-56
2022/07/01 06:37:46;;;;;;;;;;;19.80;99.90;;;;;;5033875;28;19948;-56
2022/07/01 06:40:30;;;;;;;;;;;19.70;99.90;;;;;;5033739;28;19966;-56
2022/07/01 06:43:15;;;;;;;;;;;19.60;99.90;;;;;;5033445;28;20055;-51
2022/07/01 06:45:59;;;;;;;;;;;19.50;99.90;;;;;;5033189;28;20001;-54
2022/07/01 06:48:43;;;;;;;;;;;19.40;99.90;;;;;;5018965;28;20526;-55
2022/07/01 06:51:27;;;;;;;;;;;19.40;99.90;;;;;;5033717;28;19920;-54
2022/07/01 06:54:11;;;;;;;;;;;19.50;99.90;;;;;;5033363;28;20540;-50
2022/07/01 06:56:56;;;;;;;;;;;19.40;99.90;;;;;;5033202;28;19935;-51
2022/07/01 06:59:40;;;;;;;;;;;19.40;99.90;;;;;;5033612;28;20407;-53
2022/07/01 07:02:24;;;;;;;;;;;19.40;99.90;;;;;;5033762;28;19963;-54
2022/07/01 07:05:09;;;;;;;;;;;19.10;99.90;;;;;;5015570;28;19939;-53
2022/07/01 07:07:53;;;;;;;;;;;19.10;99.90;;;;;;5026640;28;19917;-55
2022/07/01 07:10:37;;;;;;;;;;;19.20;99.90;;;;;;5033599;28;20002;-54
2022/07/01 07:13:21;;;;;;;;;;;19.20;99.90;;;;;;5032644;28;20014;-56
2022/07/01 07:16:05;;;;;;;;;;;18.90;99.90;;;;;;5033404;28;19935;-54
2022/07/01 07:18:50;;;;;;;;;;;18.70;99.90;;;;;;4998674;28;19970;-56
2022/07/01 07:21:34;;;;;;;;;;;18.80;99.90;;;;;;5021116;28;19912;-56
2022/07/01 07:24:25;;;;;;;;;;;18.60;99.90;;;;;;5026979;28;20399;-55
2022/07/01 07:27:10;;;;;;;;;;;18.40;99.90;;;;;;5034481;28;19963;-50
2022/07/01 07:29:54;;;;;;;;;;;18.20;99.90;;;;;;5053335;28;20283;-48
2022/07/01 07:32:39;;;;;;;;;;;17.90;99.90;;;;;;5012869;28;19920;-49
2022/07/01 07:35:23;;;;;;;;;;;17.90;99.90;;;;;;5013703;28;20026;-51
2022/07/01 07:38:07;;;;;;;;;;;17.80;99.90;;;;;;5012557;28;19920;-49
2022/07/01 07:40:52;;;;;;;;;;;18.00;99.90;;;;;;5031929;28;19967;-49
2022/07/01 07:43:36;;;;;;;;;;;18.00;99.90;;;;;;5036717;28;19916;-51
2022/07/01 07:46:20;;;;;;;;;;;18.10;99.90;;;;;;5033296;28;19952;-49
2022/07/01 07:49:04;;;;;;;;;;;18.40;99.90;;;;;;5032786;28;19916;-51
2022/07/01 07:51:49;;;;;;;;;;;18.40;99.90;;;;;;5033352;28;19948;-52
2022/07/01 07:54:33;;;;;;;;;;;18.20;99.90;;;;;;5033324;28;19932;-53
2022/07/01 07:57:17;;;;;;;;;;;18.00;99.90;;;;;;5033570;28;19963;-49
2022/07/01 08:00:02;;;;;;;;;;;18.10;99.90;;;;;;5032637;28;19915;-52
2022/07/01 08:02:47;;;;;;;;;;;18.00;99.90;;;;;;5032859;28;20368;-54
2022/07/01 08:05:33;;;;;;;;;;;17.80;99.90;;;;;;5032993;28;19912;-56
2022/07/01 08:08:18;;;;;;;;;;;17.50;99.90;;;;;;5017495;28;20394;-59
2022/07/01 08:11:02;;;;;;;;;;;17.20;99.90;;;;;;5032895;28;20119;-57
2022/07/01 08:13:46;;;;;;;;;;;17.00;99.90;;;;;;5032319;28;19920;-59
2022/07/01 08:16:31;;;;;;;;;;;17.00;99.90;;;;;;5032186;28;19963;-51
2022/07/01 08:19:15;;;;;;;;;;;17.00;99.90;;;;;;5037137;28;19927;-55
2022/07/01 08:22:00;;;;;;;;;;;17.00;99.90;;;;;;5052256;28;19972;-55
2022/07/01 08:24:46;;;;;;;;;;;17.10;99.90;;;;;;5052109;28;19975;-53
2022/07/01 08:27:31;;;;;;;;;;;17.00;99.90;;;;;;5051315;28;19987;-52
2022/07/01 08:30:15;;;;;;;;;;;17.00;99.90;;;;;;5051759;28;19915;-57
2022/07/01 08:33:00;;;;;;;;;;;17.10;99.90;;;;;;5052164;28;20339;-52
2022/07/01 08:35:44;;;;;;;;;;;17.00;99.90;;;;;;5050694;28;19959;-56
2022/07/01 08:38:28;;;;;;;;;;;17.20;99.90;;;;;;5050960;28;19966;-55
2022/07/01 08:41:13;;;;;;;;;;;17.20;99.90;;;;;;5051156;28;19966;-53
2022/07/01 08:43:57;;;;;;;;;;;17.10;99.90;;;;;;5040948;28;19963;-55
2022/07/01 08:46:42;;;;;;;;;;;17.20;99.90;;;;;;5034973;28;19915;-51
2022/07/01 08:49:26;;;;;;;;;;;17.10;99.90;;;;;;5035543;28;19970;-54
2022/07/01 08:52:11;;;;;;;;;;;17.00;99.90;;;;;;5035743;28;19916;-53
2022/07/01 08:54:55;;;;;;;;;;;17.00;99.90;;;;;;5035435;28;19916;-56
2022/07/01 08:57:39;;;;;;;;;;;17.00;99.90;;;;;;5034722;28;19966;-55
2022/07/01 09:00:31;;;;;;;;;;;17.20;99.90;;;;;;5034656;28;19915;-54
2022/07/01 09:03:15;;;;;;;;;;;17.20;99.90;;;;;;5034905;28;19975;-52
2022/07/01 09:06:01;;;;;;;;;;;16.90;99.90;;;;;;5034736;28;19916;-51
2022/07/01 09:08:45;;;;;;;;;;;16.90;99.90;;;;;;5035195;28;19935;-49
2022/07/01 09:11:29;;;;;;;;;;;16.80;99.90;;;;;;5035173;28;19915;-50
2022/07/01 09:14:15;;;;;;;;;;;17.00;99.90;;;;;;5034920;28;20046;-53
2022/07/01 09:17:00;;;;;;;;;;;17.10;99.90;;;;;;5034056;28;20468;-54
2022/07/01 09:19:48;;;;;;;;;;;17.10;99.90;;;;;;5043802;28;20007;-50
2022/07/01 09:22:34;;;;;;;;;;;17.00;99.90;;;;;;5055290;28;19915;-49
2022/07/01 09:25:18;;;;;;;;;;;16.90;99.90;;;;;;5055123;28;19927;-49
2022/07/01 09:28:03;;;;;;;;;;;16.90;99.90;;;;;;5035718;28;19920;-55
2022/07/01 09:30:51;;;;;;;;;;;17.00;99.90;;;;;;5035325;28;19921;-54
2022/07/01 09:33:36;;;;;;;;;;;17.10;99.90;;;;;;5023991;28;20022;-53
2022/07/01 09:36:21;;;;;;;;;;;17.00;99.90;;;;;;5035142;28;20014;-53
2022/07/01 09:39:06;;;;;;;;;;;17.00;99.90;;;;;;5035133;28;19967;-57
2022/07/01 09:41:53;;;;;;;;;;;17.10;99.90;;;;;;5034653;28;19975;-59
2022/07/01 09:44:56;;;;;;;;;;;17.30;99.90;;;;;;5035139;28;19963;-59
2022/07/01 09:47:43;;;;;;;;;;;17.30;99.90;;;;;;5035130;28;19963;-58
2022/07/01 09:50:27;;;;;;;;;;;17.20;99.90;;;;;;5035758;28;20263;-61
2022/07/01 09:53:12;;;;;;;;;;;17.00;99.90;;;;;;5036443;28;19988;-63
2022/07/01 09:55:56;;;;;;;;;;;17.10;99.90;;;;;;5035794;28;20382;-61
2022/07/01 09:58:42;;;;;;;;;;;17.10;99.90;;;;;;5036373;28;19916;-63
2022/07/01 10:01:26;;;;;;;;;;;17.00;99.90;;;;;;5035966;28;19988;-63
2022/07/01 10:04:12;;;;;;;;;;;16.70;99.90;;;;;;5036433;28;20129;-63
2022/07/01 10:07:02;;;;;;;;;;;16.70;99.90;;;;;;5035537;28;19924;-62
2022/07/01 10:09:56;;;;;;;;;;;16.80;99.90;;;;;;5021093;28;19916;-65
2022/07/01 10:12:53;;;;;;;;;;;16.80;99.90;;;;;;5020215;28;20288;-62
2022/07/01 10:15:39;;;;;;;;;;;16.70;99.90;;;;;;5000986;28;20372;-62
2022/07/01 10:18:25;;;;;;;;;;;16.60;99.90;;;;;;5027489;28;19955;-62
2022/07/01 10:21:25;;;;;;;;;;;16.60;99.90;;;;;;5034371;28;20390;-64
2022/07/01 10:24:13;;;;;;;;;;;16.80;99.90;;;;;;5005861;28;19928;-63
2022/07/01 10:27:00;;;;;;;;;;;17.20;99.90;;;;;;5033910;28;20423;-62
2022/07/01 10:29:44;;;;;;;;;;;17.20;99.90;;;;;;5033239;28;20288;-60
2022/07/01 10:32:29;;;;;;;;;;;17.50;99.90;;;;;;5033880;28;19949;-59
2022/07/01 10:35:13;;;;;;;;;;;17.50;99.90;;;;;;5033744;28;19919;-59
2022/07/01 10:37:58;;;;;;;;;;;17.30;99.90;;;;;;5033552;28;19980;-57
2022/07/01 10:40:47;;;;;;;;;;;17.00;99.90;;;;;;5018772;28;19972;-58
2022/07/01 10:43:32;;;;;;;;;;;17.00;99.90;;;;;;5013113;28;19963;-60
2022/07/01 10:46:35;;;;;;;;;;;17.20;99.90;;;;;;5050124;28;19967;-57
2022/07/01 10:49:21;;;;;;;;;;;17.30;99.90;;;;;;5034052;28;20008;-58
2022/07/01 10:52:05;;;;;;;;;;;17.00;99.90;;;;;;5033654;28;20276;-53
2022/07/01 10:54:53;;;;;;;;;;;17.00;99.90;;;;;;5033510;28;19978;-53
2022/07/01 10:57:41;;;;;;;;;;;17.10;99.90;;;;;;5016902;28;20284;-53
2022/07/01 11:00:30;;;;;;;;;;;17.10;99.90;;;;;;5041808;28;20402;-55
2022/07/01 11:03:16;;;;;;;;;;;16.90;99.90;;;;;;5023626;28;20379;-56
2022/07/01 11:06:00;;;;;;;;;;;16.90;99.90;;;;;;5028714;28;20354;-57
2022/07/01 11:08:48;;;;;;;;;;;16.90;99.90;;;;;;5034183;28;19915;-56
2022/07/01 11:11:33;;;;;;;;;;;17.00;99.90;;;;;;5033579;28;19951;-54
2022/07/01 11:14:17;;;;;;;;;;;16.90;99.90;;;;;;5032807;28;19916;-57
2022/07/01 11:17:03;;;;;;;;;;;17.00;99.90;;;;;;5018629;28;20444;-53
2022/07/01 11:19:52;;;;;;;;;;;17.10;99.90;;;;;;5033134;28;19912;-53
2022/07/01 11:22:36;;;;;;;;;;;17.20;99.90;;;;;;5033273;28;19951;-55
2022/07/01 11:25:21;;;;;;;;;;;17.10;99.90;;;;;;5032808;28;20005;-55
2022/07/01 11:28:05;;;;;;;;;;;16.90;99.90;;;;;;5032935;28;20440;-55
2022/07/01 11:30:57;;;;;;;;;;;16.80;99.90;;;;;;5033496;28;19916;-56
2022/07/01 11:33:48;;;;;;;;;;;16.90;99.90;;;;;;5032991;28;19916;-54
2022/07/01 11:39:36;;;;;;;;;;;17.10;99.90;;;;;;5032818;28;19920;-55
2022/07/01 11:42:21;;;;;;;;;;;17.10;99.90;;;;;;5033101;28;19912;-53
2022/07/01 11:45:06;;;;;;;;;;;16.90;99.90;;;;;;5012867;28;19917;-53
2022/07/01 11:47:50;;;;;;;;;;;17.20;99.90;;;;;;5012968;28;19996;-51
2022/07/01 11:50:34;;;;;;;;;;;17.20;99.90;;;;;;5013141;28;20372;-54
2022/07/01 11:53:18;;;;;;;;;;;17.40;99.90;;;;;;5012897;28;20054;-53
2022/07/01 11:56:03;;;;;;;;;;;17.30;99.90;;;;;;5012693;28;19913;-56
2022/07/01 11:58:51;;;;;;;;;;;17.30;99.90;;;;;;5024482;28;19955;-54
2022/07/01 12:01:37;;;;;;;;;;;17.40;99.90;;;;;;5032990;28;19963;-60
2022/07/01 12:04:22;;;;;;;;;;;17.40;99.90;;;;;;5033340;28;19959;-62
2022/07/01 12:07:06;;;;;;;;;;;17.30;99.90;;;;;;5032250;28;19935;-61
2022/07/01 12:09:51;;;;;;;;;;;17.30;99.90;;;;;;5033285;28;20517;-61
2022/07/01 12:12:35;;;;;;;;;;;17.30;99.90;;;;;;5033127;28;19919;-60
2022/07/01 12:15:20;;;;;;;;;;;17.50;99.90;;;;;;5012865;28;19932;-62
2022/07/01 12:18:04;;;;;;;;;;;17.40;99.90;;;;;;5014696;28;19932;-56
2022/07/01 12:20:58;;;;;;;;;;;17.30;99.90;;;;;;5016963;28;20391;-57
2022/07/01 12:23:42;;;;;;;;;;;17.20;99.90;;;;;;5017510;28;20005;-51
2022/07/01 12:26:26;;;;;;;;;;;17.10;99.90;;;;;;5016573;28;19912;-56
2022/07/01 12:29:11;;;;;;;;;;;17.10;99.90;;;;;;5017195;28;19912;-57
2022/07/01 12:31:59;;;;;;;;;;;17.20;99.90;;;;;;5016593;28;19911;-56
2022/07/01 12:34:46;;;;;;;;;;;17.10;99.90;;;;;;5016398;28;20386;-57
2022/07/01 12:37:30;;;;;;;;;;;17.10;99.90;;;;;;5016095;28;19940;-53
2022/07/01 12:40:21;;;;;;;;;;;16.90;99.90;;;;;;5016473;28;19915;-57
2022/07/01 12:43:21;;;;;;;;;;;17.00;99.90;;;;;;5021103;28;19932;-51
2022/07/01 12:46:06;;;;;;;;;;;16.90;99.90;;;;;;5035500;28;19916;-53
2022/07/01 12:48:50;;;;;;;;;;;17.10;99.90;;;;;;5036006;28;20005;-54
2022/07/01 12:51:34;;;;;;;;;;;17.20;99.90;;;;;;5036626;28;19912;-56
2022/07/01 12:54:28;;;;;;;;;;;17.00;99.90;;;;;;5037016;28;19959;-53
2022/07/01 12:57:13;;;;;;;;;;;17.10;99.90;;;;;;5056217;28;20338;-55
2022/07/01 13:00:54;;;;;;;;;;;17.10;99.90;;;;;;5035391;28;19963;-57
2022/07/01 13:03:11;;;;;;;;;;;17.20;99.90;;;;;;5033047;28;19912;-55
2022/07/01 13:05:56;;;;;;;;;;;17.30;99.90;;;;;;5034949;28;19915;-53
2022/07/01 13:08:39;;;;;;;;;;;17.30;99.90;;;;;;5020688;28;19932;-55
2022/07/01 13:11:24;;;;;;;;;;;17.20;99.90;;;;;;5035823;28;20364;-50
2022/07/01 13:14:08;;;;;;;;;;;17.20;99.90;;;;;;5035325;28;19919;-54
2022/07/01 13:16:52;;;;;;;;;;;17.10;99.90;;;;;;5035775;28;19959;-54
2022/07/01 13:19:37;;;;;;;;;;;17.10;99.90;;;;;;5035462;28;19988;-58
2022/07/01 13:22:21;;;;;;;;;;;17.20;99.90;;;;;;5035863;28;19962;-55
2022/07/01 13:25:05;;;;;;;;;;;17.30;99.90;;;;;;5036010;28;19940;-53
2022/07/01 13:27:51;;;;;;;;;;;17.40;99.90;;;;;;5034955;28;19916;-56
2022/07/01 13:30:38;;;;;;;;;;;17.40;99.90;;;;;;5035104;28;19932;-56
2022/07/01 13:33:22;;;;;;;;;;;17.30;99.90;;;;;;5035450;28;19924;-55
2022/07/01 13:36:06;;;;;;;;;;;17.20;99.90;;;;;;5035312;28;20322;-53
2022/07/01 13:38:51;;;;;;;;;;;17.00;99.90;;;;;;5035103;28;19971;-54
2022/07/01 13:41:35;;;;;;;;;;;17.10;99.90;;;;;;5035185;28;19932;-55
2022/07/01 13:44:19;;;;;;;;;;;17.20;99.90;;;;;;5035002;28;20264;-54
2022/07/01 13:47:07;;;;;;;;;;;17.30;99.90;;;;;;5034287;28;19920;-53
2022/07/01 13:49:51;;;;;;;;;;;17.20;99.90;;;;;;5035860;28;19916;-50
2022/07/01 13:52:36;;;;;;;;;;;17.40;99.90;;;;;;5019941;28;20390;-57
2022/07/01 13:55:20;;;;;;;;;;;17.50;99.90;;;;;;5019469;28;19967;-57
2022/07/01 13:58:05;;;;;;;;;;;17.80;99.90;;;;;;5025175;28;20322;-54
2022/07/01 14:00:49;;;;;;;;;;;17.90;99.90;;;;;;5054914;28;19911;-55
2022/07/01 14:03:33;;;;;;;;;;;17.80;99.90;;;;;;5054689;28;19916;-56
2022/07/01 14:06:17;;;;;;;;;;;17.70;99.90;;;;;;5054958;28;20268;-55
2022/07/01 14:09:02;;;;;;;;;;;17.80;99.90;;;;;;5054240;28;19916;-54
2022/07/01 14:11:47;;;;;;;;;;;17.80;99.90;;;;;;5054962;28;19932;-53
2022/07/01 14:14:31;;;;;;;;;;;17.80;99.90;;;;;;5041092;28;19935;-59
2022/07/01 14:17:16;;;;;;;;;;;17.80;99.90;;;;;;5030069;28;19968;-54
2022/07/01 14:20:00;;;;;;;;;;;17.80;99.90;;;;;;5033058;28;19963;-59
2022/07/01 14:22:45;;;;;;;;;;;18.00;99.90;;;;;;5034379;28;19916;-56
2022/07/01 14:25:29;;;;;;;;;;;18.00;99.90;;;;;;5033798;28;19967;-56
2022/07/01 14:28:13;;;;;;;;;;;18.00;99.90;;;;;;5033738;28;19916;-54
2022/07/01 14:30:57;;;;;;;;;;;17.70;99.90;;;;;;5034175;28;19912;-53
2022/07/01 14:33:42;;;;;;;;;;;17.70;99.90;;;;;;5034028;28;19959;-55
2022/07/01 14:36:26;;;;;;;;;;;17.80;99.90;;;;;;5033364;28;19952;-52
2022/07/01 14:39:10;;;;;;;;;;;17.80;99.90;;;;;;5034230;28;20371;-52
2022/07/01 14:41:55;;;;;;;;;;;17.90;99.90;;;;;;5033239;28;19916;-55
2022/07/01 14:44:39;;;;;;;;;;;18.10;99.90;;;;;;5033839;28;19912;-53
2022/07/01 14:47:24;;;;;;;;;;;18.10;99.90;;;;;;5018620;28;19936;-51
2022/07/01 14:50:08;;;;;;;;;;;18.10;99.90;;;;;;5034273;28;19912;-55
2022/07/01 14:52:52;;;;;;;;;;;18.10;99.90;;;;;;5033864;28;20295;-53
2022/07/01 14:55:37;;;;;;;;;;;18.10;99.90;;;;;;5031850;28;19981;-54
2022/07/01 14:58:21;;;;;;;;;;;18.00;99.90;;;;;;5029561;28;19936;-52
2022/07/01 15:01:05;;;;;;;;;;;17.90;99.90;;;;;;5033395;28;20001;-54
2022/07/01 15:03:49;;;;;;;;;;;17.80;99.90;;;;;;5033233;28;19932;-55
2022/07/01 15:06:34;;;;;;;;;;;17.70;99.90;;;;;;5018256;28;19944;-55
2022/07/01 15:09:21;;;;;;;;;;;17.90;99.90;;;;;;5034563;28;19912;-54
2022/07/01 15:12:06;;;;;;;;;;;17.70;99.90;;;;;;5033781;28;19912;-57
2022/07/01 15:14:50;;;;;;;;;;;17.80;99.90;;;;;;5034740;28;19916;-60
2022/07/01 15:17:40;;;;;;;;;;;17.70;99.90;;;;;;5033881;28;19924;-52
2022/07/01 15:20:24;;;;;;;;;;;17.70;99.90;;;;;;5033429;28;19966;-52
2022/07/01 15:23:08;;;;;;;;;;;17.70;99.90;;;;;;5033669;28;19939;-56
2022/07/01 15:25:52;;;;;;;;;;;17.70;99.90;;;;;;5033407;28;20090;-54
2022/07/01 15:28:37;;;;;;;;;;;17.60;99.90;;;;;;5032731;28;19928;-55
2022/07/01 15:31:21;;;;;;;;;;;17.50;99.90;;;;;;5033244;28;19915;-52
2022/07/01 15:34:05;;;;;;;;;;;17.40;99.90;;;;;;5035087;28;19920;-54
2022/07/01 15:36:49;;;;;;;;;;;17.40;99.90;;;;;;5028955;28;19912;-50
2022/07/01 15:39:33;;;;;;;;;;;17.40;99.90;;;;;;5032798;28;20026;-51
2022/07/01 15:42:17;;;;;;;;;;;17.50;99.90;;;;;;5032583;28;19959;-54
2022/07/01 15:45:03;;;;;;;;;;;17.30;99.90;;;;;;5013523;28;19916;-49
2022/07/01 15:48:05;;;;;;;;;;;17.20;99.90;;;;;;5017341;28;19916;-48
2022/07/01 15:50:50;;;;;;;;;;;17.10;99.90;;;;;;5017854;28;19931;-51
2022/07/01 15:53:35;;;;;;;;;;;17.30;99.90;;;;;;5035360;28;19919;-51
2022/07/01 15:56:19;;;;;;;;;;;17.30;99.90;;;;;;5036369;28;20062;-52
2022/07/01 15:59:03;;;;;;;;;;;17.20;99.90;;;;;;5037077;28;19920;-48
2022/07/01 16:01:47;;;;;;;;;;;17.20;99.90;;;;;;5036867;28;20419;-48
2022/07/01 16:04:35;;;;;;;;;;;17.20;99.90;;;;;;5037397;28;20523;-49
2022/07/01 16:07:20;;;;;;;;;;;17.20;99.90;;;;;;5036887;28;19975;-51
2022/07/01 16:10:09;;;;;;;;;;;17.20;99.90;;;;;;5037650;28;20419;-55